createdAt,value
2018-03-25T00:01:15.690Z,95.41
2018-03-25T00:03:44.708Z,95.74
2018-03-25T00:06:13.713Z,95.69
2018-03-25T00:08:42.871Z,95.74
2018-03-25T00:11:11.937Z,95.52
2018-03-25T00:13:41.400Z,95.46
2018-03-25T00:16:10.537Z,95.12
2018-03-25T00:18:39.741Z,95.55
2018-03-25T00:21:08.950Z,95.96
2018-03-25T00:23:38.037Z,95.30
2018-03-25T00:26:07.239Z,95.83
2018-03-25T00:28:36.262Z,96.05
2018-03-25T00:31:05.189Z,96.37
2018-03-25T00:33:34.235Z,95.50
2018-03-25T00:36:03.358Z,96.06
2018-03-25T00:38:32.441Z,96.33
2018-03-25T00:41:01.430Z,96.05
2018-03-25T00:43:30.546Z,95.81
2018-03-25T00:45:59.730Z,95.11
2018-03-25T00:48:29.088Z,96.04
2018-03-25T00:50:58.211Z,96.02
2018-03-25T00:53:27.425Z,96.38
2018-03-25T00:55:56.617Z,96.35
2018-03-25T00:58:25.857Z,96.59
2018-03-25T01:00:54.836Z,96.69
2018-03-25T01:03:23.970Z,96.85
2018-03-25T01:05:53.109Z,96.57
2018-03-25T01:08:22.105Z,96.31
2018-03-25T01:10:51.567Z,96.16
2018-03-25T01:13:20.690Z,96.24
2018-03-25T01:16:01.231Z,96.61
2018-03-25T01:18:30.117Z,96.31
2018-03-25T01:20:59.316Z,96.33
2018-03-25T01:23:28.509Z,96.41
2018-03-25T01:25:57.974Z,96.06
2018-03-25T01:28:27.010Z,95.66
2018-03-25T01:30:56.105Z,96.41
2018-03-25T01:33:25.301Z,96.35
2018-03-25T01:35:54.412Z,96.49
2018-03-25T01:38:23.637Z,96.61
2018-03-25T01:40:52.798Z,96.70
2018-03-25T01:43:21.992Z,96.88
2018-03-25T01:45:51.841Z,96.28
2018-03-25T01:48:21.012Z,96.72
2018-03-25T01:50:50.202Z,96.95
2018-03-25T01:53:19.427Z,97.06
2018-03-25T01:55:48.607Z,97.12
2018-03-25T01:58:17.802Z,96.85
2018-03-25T02:00:46.994Z,96.38
2018-03-25T02:03:16.099Z,96.54
2018-03-25T02:05:45.295Z,96.42
2018-03-25T02:08:20.602Z,96.24
2018-03-25T02:10:49.898Z,96.11
2018-03-25T02:13:24.964Z,95.81
2018-03-25T02:15:57.143Z,95.98
2018-03-25T02:18:26.405Z,95.77
2018-03-25T02:20:55.539Z,94.99
2018-03-25T02:23:24.871Z,95.27
2018-03-25T02:25:54.007Z,95.43
2018-03-25T02:28:23.034Z,95.47
2018-03-25T02:30:52.045Z,95.12
2018-03-25T02:33:21.314Z,94.63
2018-03-25T02:35:51.699Z,94.80
2018-03-25T02:38:20.798Z,94.67
2018-03-25T02:40:49.845Z,94.93
2018-03-25T02:43:18.938Z,95.09
2018-03-25T02:45:48.170Z,94.65
2018-03-25T02:48:17.325Z,94.35
2018-03-25T02:50:46.525Z,94.37
2018-03-25T02:53:15.709Z,94.16
2018-03-25T02:55:45.017Z,94.45
2018-03-25T02:58:14.233Z,94.91
2018-03-25T03:00:43.253Z,94.36
2018-03-25T03:03:12.273Z,93.82
2018-03-25T03:05:41.331Z,93.87
2018-03-25T03:08:10.537Z,93.61
2018-03-25T03:10:39.697Z,93.63
2018-03-25T03:13:08.997Z,94.24
2018-03-25T03:15:38.178Z,94.12
2018-03-25T03:18:07.409Z,94.00
2018-03-25T03:20:36.451Z,93.89
2018-03-25T03:23:05.643Z,94.20
2018-03-25T03:25:34.577Z,94.26
2018-03-25T03:28:03.573Z,94.18
2018-03-25T03:30:35.073Z,93.47
2018-03-25T03:33:04.116Z,93.66
2018-03-25T03:35:33.322Z,94.09
2018-03-25T03:38:02.573Z,94.34
2018-03-25T03:40:31.714Z,93.89
2018-03-25T03:43:00.872Z,93.77
2018-03-25T03:45:30.034Z,94.13
2018-03-25T03:47:58.937Z,94.00
2018-03-25T03:50:27.993Z,93.89
2018-03-25T03:52:57.295Z,93.81
2018-03-25T03:55:26.552Z,93.92
2018-03-25T03:57:55.699Z,93.91
2018-03-25T04:00:25.048Z,94.08
2018-03-25T04:02:54.241Z,93.91
2018-03-25T04:05:23.529Z,93.89
2018-03-25T04:07:52.695Z,93.91
2018-03-25T04:10:21.737Z,94.10
2018-03-25T04:12:51.021Z,94.16
2018-03-25T04:15:20.190Z,93.98
2018-03-25T04:17:49.128Z,93.81
2018-03-25T04:20:18.295Z,93.56
2018-03-25T04:22:47.510Z,93.35
2018-03-25T04:25:16.647Z,93.29
2018-03-25T04:27:45.775Z,93.54
2018-03-25T04:30:15.180Z,94.05
2018-03-25T04:32:44.301Z,93.65
2018-03-25T04:35:13.349Z,93.61
2018-03-25T04:37:42.385Z,93.52
2018-03-25T04:40:11.478Z,93.09
2018-03-25T04:42:40.845Z,93.04
2018-03-25T04:45:10.085Z,92.59
2018-03-25T04:47:39.287Z,92.46
2018-03-25T04:50:08.442Z,91.37
2018-03-25T04:52:37.686Z,91.65
2018-03-25T04:55:06.630Z,90.70
2018-03-25T04:57:35.685Z,90.56
2018-03-25T05:00:04.898Z,91.02
2018-03-25T05:02:34.121Z,91.54
2018-03-25T05:05:03.366Z,91.98
2018-03-25T05:07:32.561Z,92.23
2018-03-25T05:10:01.722Z,91.89
2018-03-25T05:12:30.926Z,92.17
2018-03-25T05:15:00.173Z,91.99
2018-03-25T05:17:29.309Z,92.04
2018-03-25T05:19:58.405Z,92.33
2018-03-25T05:22:27.665Z,92.69
2018-03-25T05:24:56.845Z,92.05
2018-03-25T05:27:26.005Z,90.70
2018-03-25T05:29:55.161Z,90.56
2018-03-25T05:32:24.443Z,92.38
2018-03-25T05:34:53.598Z,92.78
2018-03-25T05:37:22.808Z,93.01
2018-03-25T05:39:52.003Z,93.39
2018-03-25T05:42:21.960Z,93.65
2018-03-25T05:44:51.193Z,92.60
2018-03-25T05:47:20.211Z,92.81
2018-03-25T05:49:49.234Z,91.90
2018-03-25T05:52:18.400Z,92.25
2018-03-25T05:54:47.533Z,92.13
2018-03-25T05:57:16.731Z,91.48
2018-03-25T05:59:46.093Z,91.60
2018-03-25T06:02:15.298Z,91.79
2018-03-25T06:04:44.497Z,92.03
2018-03-25T06:07:13.726Z,91.58
2018-03-25T06:09:43.007Z,91.54
2018-03-25T06:12:12.090Z,90.89
2018-03-25T06:14:41.129Z,91.23
2018-03-25T06:17:10.274Z,91.34
2018-03-25T06:19:39.379Z,92.03
2018-03-25T06:22:08.519Z,89.19
2018-03-25T06:24:37.477Z,91.46
2018-03-25T06:27:06.767Z,90.63
2018-03-25T06:29:35.805Z,91.28
2018-03-25T06:32:04.961Z,91.45
2018-03-25T06:34:34.097Z,91.55
2018-03-25T06:37:03.222Z,91.69
2018-03-25T06:39:32.268Z,92.52
2018-03-25T06:42:01.360Z,92.44
2018-03-25T06:44:30.384Z,92.35
2018-03-25T06:46:59.436Z,92.29
2018-03-25T06:49:28.526Z,92.23
2018-03-25T06:51:57.776Z,92.35
2018-03-25T06:54:26.897Z,91.94
2018-03-25T06:56:55.869Z,92.18
2018-03-25T06:59:24.862Z,92.54
2018-03-25T07:01:54.176Z,90.75
2018-03-25T07:04:23.255Z,91.02
2018-03-25T07:06:52.506Z,90.84
2018-03-25T07:09:21.723Z,91.02
2018-03-25T07:11:50.889Z,91.62
2018-03-25T07:14:20.129Z,91.80
2018-03-25T07:16:49.184Z,91.27
2018-03-25T07:19:18.381Z,91.29
2018-03-25T07:21:47.410Z,89.96
2018-03-25T07:24:16.841Z,89.03
2018-03-25T07:26:45.885Z,88.12
2018-03-25T07:29:14.825Z,87.22
2018-03-25T07:31:43.806Z,87.11
2018-03-25T07:34:12.771Z,86.04
2018-03-25T07:36:41.743Z,87.89
2018-03-25T07:39:10.663Z,86.32
2018-03-25T07:41:39.669Z,86.77
2018-03-25T07:44:08.800Z,86.17
2018-03-25T07:46:37.776Z,85.98
2018-03-25T07:49:07.052Z,86.35
2018-03-25T07:51:36.586Z,85.42
2018-03-25T07:54:05.586Z,85.26
2018-03-25T07:56:34.598Z,84.27
2018-03-25T07:59:03.520Z,85.06
2018-03-25T08:01:32.503Z,85.60
2018-03-25T08:04:01.606Z,84.38
2018-03-25T08:06:30.591Z,84.03
2018-03-25T08:08:59.559Z,85.34
2018-03-25T08:11:28.600Z,84.48
2018-03-25T08:13:57.633Z,84.26
2018-03-25T08:16:26.809Z,82.78
2018-03-25T08:18:55.721Z,82.88
2018-03-25T08:21:24.674Z,83.40
2018-03-25T08:23:53.844Z,83.73
2018-03-25T08:26:22.875Z,84.25
2018-03-25T08:28:51.945Z,88.74
2018-03-25T08:31:21.077Z,80.99
2018-03-25T08:33:50.149Z,85.82
2018-03-25T08:36:19.226Z,84.87
2018-03-25T08:38:48.629Z,82.12
2018-03-25T08:41:17.662Z,83.04
2018-03-25T08:43:46.714Z,83.02
2018-03-25T08:46:15.859Z,82.97
2018-03-25T08:48:44.818Z,80.66
2018-03-25T08:51:13.814Z,76.95
2018-03-25T08:53:42.841Z,75.94
2018-03-25T08:56:12.201Z,77.10
2018-03-25T08:58:41.601Z,72.59
2018-03-25T09:01:10.733Z,70.99
2018-03-25T09:03:39.801Z,72.10
2018-03-25T09:06:08.969Z,70.40
2018-03-25T09:08:38.012Z,71.32
2018-03-25T09:11:06.993Z,73.91
2018-03-25T09:13:36.017Z,72.08
2018-03-25T09:16:04.978Z,75.29
2018-03-25T09:18:34.020Z,79.57
2018-03-25T09:21:02.914Z,78.52
2018-03-25T09:23:31.991Z,76.91
2018-03-25T09:26:01.253Z,77.32
2018-03-25T09:31:11.482Z,75.25
2018-03-25T09:33:40.581Z,78.21
2018-03-25T09:36:09.827Z,77.61
2018-03-25T09:38:38.807Z,77.90
2018-03-25T09:41:07.745Z,75.51
2018-03-25T09:43:36.798Z,76.59
2018-03-25T09:46:05.755Z,79.20
2018-03-25T09:48:34.707Z,75.84
2018-03-25T09:51:03.778Z,74.31
2018-03-25T09:53:32.815Z,69.91
2018-03-25T09:56:01.827Z,77.08
2018-03-25T09:58:30.886Z,79.78
2018-03-25T10:01:05.642Z,80.81
2018-03-25T10:03:34.649Z,80.26
2018-03-25T10:06:03.601Z,81.13
2018-03-25T10:08:32.731Z,80.61
2018-03-25T10:11:01.711Z,80.83
2018-03-25T10:13:30.714Z,81.24
2018-03-25T10:15:59.821Z,80.42
2018-03-25T10:18:28.831Z,78.84
2018-03-25T10:20:57.831Z,78.18
2018-03-25T10:23:26.871Z,75.06
2018-03-25T10:25:55.887Z,82.07
2018-03-25T10:28:24.869Z,80.21
2018-03-25T10:30:53.967Z,78.22
2018-03-25T10:33:23.068Z,78.28
2018-03-25T10:35:52.361Z,81.53
2018-03-25T10:38:21.381Z,80.93
2018-03-25T10:40:50.510Z,75.01
2018-03-25T10:43:19.693Z,79.34
2018-03-25T10:45:49.519Z,81.06
2018-03-25T10:48:18.739Z,78.25
2018-03-25T10:50:47.741Z,80.73
2018-03-25T10:53:16.758Z,78.29
2018-03-25T10:55:45.665Z,75.80
2018-03-25T10:58:14.624Z,75.55
2018-03-25T11:00:43.651Z,73.70
2018-03-25T11:03:12.865Z,74.11
2018-03-25T11:05:41.918Z,68.34
2018-03-25T11:08:11.011Z,67.13
2018-03-25T11:10:40.109Z,70.17
2018-03-25T11:13:09.198Z,70.17
2018-03-25T11:15:38.241Z,70.88
2018-03-25T11:18:07.451Z,70.94
2018-03-25T11:20:36.902Z,72.49
2018-03-25T11:23:05.998Z,68.55
2018-03-25T11:25:35.049Z,66.23
2018-03-25T11:28:04.140Z,70.08
2018-03-25T11:30:33.317Z,67.21
2018-03-25T11:33:02.386Z,64.73
2018-03-25T11:35:31.728Z,64.48
2018-03-25T11:38:00.786Z,67.82
2018-03-25T11:40:29.917Z,65.93
2018-03-25T11:42:59.013Z,68.18
2018-03-25T11:45:28.091Z,68.41
2018-03-25T11:47:57.006Z,73.08
2018-03-25T11:50:25.983Z,67.87
2018-03-25T11:52:55.252Z,71.32
2018-03-25T11:55:24.187Z,64.46
2018-03-25T11:57:53.249Z,66.58
2018-03-25T12:00:22.571Z,65.92
2018-03-25T12:02:51.895Z,66.39
2018-03-25T12:05:21.030Z,65.95
2018-03-25T12:07:50.197Z,65.08
2018-03-25T12:10:19.277Z,66.41
2018-03-25T12:12:48.402Z,66.87
2018-03-25T12:15:18.222Z,66.73
2018-03-25T12:17:47.248Z,70.11
2018-03-25T12:20:16.380Z,66.54
2018-03-25T12:22:45.881Z,66.09
2018-03-25T12:25:15.140Z,74.05
2018-03-25T12:27:44.233Z,71.80
2018-03-25T12:30:13.474Z,69.69
2018-03-25T12:32:42.678Z,66.97
2018-03-25T12:35:11.873Z,65.00
2018-03-25T12:37:41.023Z,71.27
2018-03-25T12:40:10.169Z,69.37
2018-03-25T12:42:39.302Z,67.27
2018-03-25T12:45:08.524Z,71.70
2018-03-25T12:47:37.658Z,72.29
2018-03-25T12:50:06.861Z,70.12
2018-03-25T12:52:36.119Z,68.24
2018-03-25T12:55:05.314Z,68.91
2018-03-25T12:57:34.702Z,75.55
2018-03-25T13:00:03.805Z,74.45
2018-03-25T13:02:32.963Z,70.38
2018-03-25T13:05:02.247Z,75.73
2018-03-25T13:07:31.319Z,74.71
2018-03-25T13:10:00.505Z,78.26
2018-03-25T13:12:29.686Z,75.40
2018-03-25T13:14:58.692Z,75.29
2018-03-25T13:17:27.937Z,76.04
2018-03-25T13:19:57.077Z,78.08
2018-03-25T13:22:26.124Z,76.89
2018-03-25T13:24:55.171Z,76.33
2018-03-25T13:27:24.299Z,74.61
2018-03-25T13:29:53.375Z,72.98
2018-03-25T13:32:22.652Z,77.40
2018-03-25T13:34:51.859Z,80.02
2018-03-25T13:37:21.014Z,76.73
2018-03-25T13:39:50.034Z,76.50
2018-03-25T13:42:19.109Z,75.69
2018-03-25T13:44:48.291Z,77.40
2018-03-25T13:47:17.631Z,76.25
2018-03-25T13:49:46.760Z,78.22
2018-03-25T13:52:15.865Z,77.16
2018-03-25T13:54:44.935Z,80.91
2018-03-25T13:57:13.953Z,78.21
2018-03-25T13:59:43.038Z,78.16
2018-03-25T14:02:12.055Z,76.47
2018-03-25T14:04:41.209Z,79.16
2018-03-25T14:07:10.327Z,79.77
2018-03-25T14:09:39.327Z,78.40
2018-03-25T14:12:08.410Z,79.77
2018-03-25T14:14:37.442Z,80.56
2018-03-25T14:17:06.622Z,82.00
2018-03-25T14:19:36.445Z,80.28
2018-03-25T14:22:05.542Z,80.55
2018-03-25T14:24:34.646Z,81.48
2018-03-25T14:27:03.669Z,79.85
2018-03-25T14:29:32.803Z,80.53
2018-03-25T14:32:02.129Z,82.44
2018-03-25T14:34:31.119Z,82.54
2018-03-25T14:37:00.086Z,82.56
2018-03-25T14:39:29.190Z,81.40
2018-03-25T14:41:58.283Z,81.21
2018-03-25T14:44:27.291Z,83.29
2018-03-25T14:46:56.205Z,83.00
2018-03-25T14:49:25.306Z,81.70
2018-03-25T14:51:54.276Z,83.07
2018-03-25T14:54:23.274Z,81.17
2018-03-25T14:56:52.418Z,81.49
2018-03-25T14:59:21.481Z,82.33
2018-03-25T15:01:50.521Z,83.09
2018-03-25T15:04:19.480Z,82.64
2018-03-25T15:06:48.485Z,83.62
2018-03-25T15:09:17.765Z,83.53
2018-03-25T15:11:46.921Z,85.59
2018-03-25T15:14:16.012Z,83.96
2018-03-25T15:16:45.226Z,82.68
2018-03-25T15:19:14.179Z,85.08
2018-03-25T15:21:43.146Z,83.55
2018-03-25T15:24:12.349Z,83.95
2018-03-25T15:26:41.457Z,84.38
2018-03-25T15:29:10.516Z,84.78
2018-03-25T15:31:39.489Z,84.15
2018-03-25T15:34:08.518Z,84.21
2018-03-25T15:36:37.571Z,85.33
2018-03-25T15:39:06.589Z,85.80
2018-03-25T15:41:35.537Z,84.97
2018-03-25T15:44:04.541Z,85.44
2018-03-25T15:46:33.526Z,85.75
2018-03-25T15:49:02.635Z,85.57
2018-03-25T15:51:31.813Z,88.85
2018-03-25T15:54:00.826Z,87.54
2018-03-25T15:56:29.773Z,88.66
2018-03-25T15:58:58.918Z,84.28
2018-03-25T16:01:27.910Z,84.45
2018-03-25T16:03:56.981Z,86.35
2018-03-25T16:06:25.939Z,86.92
2018-03-25T16:08:55.094Z,84.75
2018-03-25T16:11:24.063Z,83.61
2018-03-25T16:13:53.343Z,84.79
2018-03-25T16:16:22.487Z,86.35
2018-03-25T16:18:51.447Z,85.39
2018-03-25T16:21:20.977Z,85.89
2018-03-25T16:23:50.311Z,84.39
2018-03-25T16:26:19.429Z,86.49
2018-03-25T16:28:48.539Z,88.86
2018-03-25T16:31:17.883Z,88.17
2018-03-25T16:33:46.982Z,85.24
2018-03-25T16:36:15.983Z,84.10
2018-03-25T16:38:44.856Z,88.25
2018-03-25T16:41:13.935Z,89.36
2018-03-25T16:43:42.843Z,89.74
2018-03-25T16:46:11.807Z,88.33
2018-03-25T16:48:40.886Z,88.62
2018-03-25T16:51:10.019Z,86.12
2018-03-25T16:53:39.055Z,88.68
2018-03-25T16:56:08.162Z,87.12
2018-03-25T16:58:37.316Z,88.90
2018-03-25T17:01:06.511Z,90.06
2018-03-25T17:03:35.468Z,90.08
2018-03-25T17:06:04.420Z,88.96
2018-03-25T17:08:33.609Z,89.56
2018-03-25T17:11:02.636Z,89.33
2018-03-25T17:13:31.657Z,89.29
2018-03-25T17:16:00.666Z,89.36
2018-03-25T17:18:29.585Z,87.99
2018-03-25T17:20:58.670Z,88.15
2018-03-25T17:23:27.757Z,90.36
2018-03-25T17:25:56.753Z,88.81
2018-03-25T17:28:25.742Z,89.95
2018-03-25T17:30:55.107Z,92.35
2018-03-25T17:33:24.261Z,91.27
2018-03-25T17:35:53.379Z,90.16
2018-03-25T17:38:22.394Z,89.08
2018-03-25T17:40:51.369Z,89.44
2018-03-25T17:43:20.322Z,88.96
2018-03-25T17:45:49.294Z,91.26
2018-03-25T17:48:18.213Z,91.16
2018-03-25T17:50:47.306Z,89.82
2018-03-25T17:53:16.331Z,88.49
2018-03-25T17:55:45.424Z,89.54
2018-03-25T17:58:14.442Z,92.46
2018-03-25T18:00:43.551Z,92.25
2018-03-25T18:03:12.692Z,93.84
2018-03-25T18:05:43.227Z,93.09
2018-03-25T18:08:12.253Z,92.29
2018-03-25T18:10:41.308Z,92.01
2018-03-25T18:13:10.426Z,93.43
2018-03-25T18:15:39.462Z,93.40
2018-03-25T18:18:08.447Z,93.67
2018-03-25T18:20:37.413Z,92.53
2018-03-25T18:23:06.398Z,93.27
2018-03-25T18:25:35.327Z,92.94
2018-03-25T18:28:04.439Z,91.89
2018-03-25T18:30:33.493Z,90.55
2018-03-25T18:33:02.494Z,89.64
2018-03-25T18:35:31.505Z,91.57
2018-03-25T18:38:00.555Z,91.92
2018-03-25T18:40:29.669Z,89.42
2018-03-25T18:42:58.825Z,92.21
2018-03-25T18:45:28.000Z,91.18
2018-03-25T18:47:57.088Z,89.03
2018-03-25T18:50:26.153Z,86.73
2018-03-25T18:52:55.148Z,86.97
2018-03-25T18:55:24.280Z,89.34
2018-03-25T18:57:53.259Z,91.43
2018-03-25T19:00:22.249Z,92.17
2018-03-25T19:02:51.245Z,90.47
2018-03-25T19:05:20.299Z,89.62
2018-03-25T19:07:49.432Z,87.53
2018-03-25T19:10:18.466Z,88.19
2018-03-25T19:12:47.542Z,89.16
2018-03-25T19:15:16.617Z,88.90
2018-03-25T19:17:45.617Z,87.94
2018-03-25T19:20:14.834Z,88.46
2018-03-25T19:22:43.997Z,88.63
2018-03-25T19:25:13.045Z,88.16
2018-03-25T19:27:42.854Z,86.57
2018-03-25T19:30:11.913Z,87.00
2018-03-25T19:32:40.968Z,88.33
2018-03-25T19:35:09.938Z,87.98
2018-03-25T19:37:38.980Z,88.20
2018-03-25T19:40:08.027Z,88.59
2018-03-25T19:42:37.055Z,88.68
2018-03-25T19:45:06.136Z,88.29
2018-03-25T19:47:35.277Z,88.58
2018-03-25T19:50:04.378Z,89.15
2018-03-25T19:52:33.673Z,90.42
2018-03-25T19:55:02.834Z,92.04
2018-03-25T19:57:31.819Z,92.10
2018-03-25T20:00:00.822Z,92.91
2018-03-25T20:02:29.787Z,92.52
2018-03-25T20:04:58.741Z,92.73
2018-03-25T20:07:27.955Z,90.21
2018-03-25T20:09:56.983Z,91.67
2018-03-25T20:12:25.959Z,93.07
2018-03-25T20:14:54.938Z,90.54
2018-03-25T20:17:23.975Z,90.92
2018-03-25T20:19:53.949Z,88.86
2018-03-25T20:22:22.985Z,88.94
2018-03-25T20:24:52.042Z,89.64
2018-03-25T20:27:21.013Z,90.71
2018-03-25T20:29:49.965Z,89.61
2018-03-25T20:32:18.921Z,92.08
2018-03-25T20:34:47.954Z,91.60
2018-03-25T20:37:17.018Z,92.20
2018-03-25T20:39:46.038Z,92.33
2018-03-25T20:42:15.038Z,92.78
2018-03-25T20:44:44.161Z,93.33
2018-03-25T20:47:13.275Z,92.76
2018-03-25T20:49:42.205Z,91.90
2018-03-25T20:52:11.155Z,90.57
2018-03-25T20:54:40.154Z,89.44
2018-03-25T20:57:09.082Z,90.06
2018-03-25T20:59:38.174Z,91.59
2018-03-25T21:02:07.149Z,92.78
2018-03-25T21:04:36.157Z,93.23
2018-03-25T21:07:05.279Z,93.60
2018-03-25T21:09:34.301Z,93.24
2018-03-25T21:12:03.331Z,92.44
2018-03-25T21:14:32.407Z,93.91
2018-03-25T21:17:01.451Z,94.15
2018-03-25T21:19:30.656Z,94.56
2018-03-25T21:21:59.645Z,94.19
2018-03-25T21:24:28.687Z,95.01
2018-03-25T21:26:57.738Z,95.03
2018-03-25T21:29:26.718Z,95.11
2018-03-25T21:31:55.929Z,95.23
2018-03-25T21:34:24.965Z,94.64
2018-03-25T21:36:53.986Z,94.70
2018-03-25T21:39:22.912Z,94.59
2018-03-25T21:41:52.045Z,94.31
2018-03-25T21:44:21.253Z,93.94
2018-03-25T21:46:50.355Z,94.33
2018-03-25T21:49:19.374Z,94.03
2018-03-25T21:51:48.461Z,94.61
2018-03-25T21:54:17.529Z,94.69
2018-03-25T21:56:46.565Z,93.96
2018-03-25T21:59:15.839Z,94.61
2018-03-25T22:01:45.082Z,93.84
2018-03-25T22:04:14.117Z,93.83
2018-03-25T22:06:43.318Z,93.61
2018-03-25T22:09:12.369Z,92.36
2018-03-25T22:11:41.341Z,92.73
2018-03-25T22:14:10.498Z,92.05
2018-03-25T22:16:40.314Z,92.83
2018-03-25T22:19:09.470Z,92.91
2018-03-25T22:21:38.749Z,94.75
2018-03-25T22:24:08.529Z,95.26
2018-03-25T22:26:37.577Z,94.68
2018-03-25T22:29:06.617Z,92.66
2018-03-25T22:31:35.625Z,91.12
2018-03-25T22:34:04.860Z,90.52
2018-03-25T22:36:34.027Z,92.13
2018-03-25T22:39:03.238Z,92.78
2018-03-25T22:41:32.274Z,92.71
2018-03-25T22:44:01.349Z,92.46
2018-03-25T22:46:30.447Z,93.77
2018-03-25T22:48:59.595Z,93.34
2018-03-25T22:51:28.562Z,92.95
2018-03-25T22:53:57.546Z,93.41
2018-03-25T22:56:26.780Z,93.86
2018-03-25T22:58:55.773Z,94.46
2018-03-25T23:01:24.898Z,94.62
2018-03-25T23:03:53.971Z,95.02
2018-03-25T23:06:23.085Z,95.84
2018-03-25T23:11:32.354Z,94.83
2018-03-25T23:14:01.645Z,96.21
2018-03-25T23:16:30.809Z,97.05
2018-03-25T23:18:59.802Z,98.53
2018-03-25T23:21:28.742Z,98.44
2018-03-25T23:23:57.925Z,98.09
2018-03-25T23:26:26.985Z,98.37
2018-03-25T23:28:56.069Z,97.24
2018-03-25T23:31:25.224Z,94.29
2018-03-25T23:33:54.337Z,95.26
2018-03-25T23:36:23.365Z,96.13
2018-03-25T23:38:52.421Z,97.42
2018-03-25T23:41:21.507Z,98.17
2018-03-25T23:43:50.797Z,98.28
2018-03-25T23:46:20.214Z,98.19
2018-03-25T23:48:49.259Z,97.75
2018-03-25T23:51:18.389Z,96.82
2018-03-25T23:53:47.590Z,97.30
2018-03-25T23:56:16.755Z,98.10
2018-03-25T23:58:45.772Z,95.41
